Hlavní strana
METAR-TAF:

METAR-TAF

Letiště :

Conakry, Guinea

zeměpisná šířka: 09-34N, zeměpisná délka: 013-37W, výška: 26 m

Aktuální stav počasí

Zpráva byla vytvořena před 1 hodinou a 53 minutami, v 20:00 UTC
Západoseverozápadní vítr 6 kt
Teplota 27°C
Vlhkost vzduchu 84%
Tlak 1009 hPa
Viditelnost: 3000 m
kouřmo

METAR: GUCY 222000Z 29006KT 3000 BR NSC 27/24 Q1009 NOSIG

Čas: 21:53 (21:53 UTC)


TAF: chybějící

Stav a předpovědi počasí z více než 4 000 letišť (zprávy METAR a TAF).

Červené a žluté tečky na mapě představují dostupné meteorologické stanice.

Když kurzor umístíte na tečku, zobrazí se název stanice.

Pak kliknutím zobrazíte stav a předpověď počasí.

Chcete-li změnit mapu, kliknutím na zelené tlačítko se znaménkem +mapu přiblížíte, kliknutím na zelené tlačítko se znaménkem – mapu oddálíte a kliknutím na zelené šipky přejdete na sousední mapy.


METAR-TAF: